createdAt,value
2023-03-10T00:01:41.181Z,98685.52
2023-03-10T00:06:44.303Z,98680.18
2023-03-10T00:11:47.194Z,98677.92
2023-03-10T00:16:50.099Z,98672.27
2023-03-10T00:21:53.584Z,98665.08
2023-03-10T00:26:56.518Z,98660.45
2023-03-10T00:31:59.936Z,98657.63
2023-03-10T00:37:04.584Z,98645.98
2023-03-10T00:42:08.109Z,98638.84
2023-03-10T00:47:11.474Z,98635.00
2023-03-10T00:52:14.425Z,98627.52
2023-03-10T00:57:18.337Z,98617.00
2023-03-10T01:02:21.464Z,98608.45
2023-03-10T01:07:24.371Z,98608.77
2023-03-10T01:12:27.269Z,98602.34
2023-03-10T01:17:30.174Z,98589.44
2023-03-10T01:22:33.079Z,98581.16
2023-03-10T01:27:35.987Z,98573.33
2023-03-10T01:32:39.698Z,98565.63
2023-03-10T01:37:44.485Z,98564.66
2023-03-10T01:42:47.664Z,98558.88
2023-03-10T01:47:50.568Z,98554.14
2023-03-10T01:52:58.531Z,98544.85
2023-03-10T01:58:03.131Z,98531.79
2023-03-10T02:03:27.126Z,98518.98
2023-03-10T02:08:34.229Z,98511.58
2023-03-10T02:13:37.139Z,98504.81
2023-03-10T02:18:43.730Z,98503.52
2023-03-10T02:24:01.385Z,98503.27
2023-03-10T02:29:09.814Z,98482.54
2023-03-10T02:34:13.984Z,98475.55
2023-03-10T02:39:16.956Z,98463.65
2023-03-10T02:44:22.210Z,98454.59
2023-03-10T02:49:25.934Z,98452.38
2023-03-10T02:54:28.838Z,98439.41
2023-03-10T02:59:31.741Z,98429.66
2023-03-10T03:04:34.645Z,98418.39
2023-03-10T03:09:37.492Z,98416.93
2023-03-10T03:14:40.328Z,98399.58
2023-03-10T03:19:43.254Z,98388.13
2023-03-10T03:24:46.154Z,98387.39
2023-03-10T03:29:49.060Z,98386.94
2023-03-10T03:34:51.961Z,98377.41
2023-03-10T03:39:55.601Z,98368.43
2023-03-10T03:44:58.691Z,98353.55
2023-03-10T03:50:02.287Z,98344.25
2023-03-10T03:55:06.562Z,98337.80
2023-03-10T04:00:13.140Z,98328.09
2023-03-10T04:05:16.451Z,98321.75
2023-03-10T04:10:23.872Z,98310.62
2023-03-10T04:15:27.212Z,98302.66
2023-03-10T04:20:30.188Z,98292.45
2023-03-10T04:25:33.291Z,98285.00
2023-03-10T04:30:36.199Z,98259.14
2023-03-10T04:35:44.245Z,98254.76
2023-03-10T04:40:54.172Z,98265.52
2023-03-10T04:45:57.427Z,98252.90
2023-03-10T04:51:09.289Z,98248.65
2023-03-10T04:56:12.436Z,98239.52
2023-03-10T05:01:16.194Z,98228.36
2023-03-10T05:06:21.602Z,98220.73
2023-03-10T05:11:24.521Z,98212.42
2023-03-10T05:16:28.027Z,98203.23
2023-03-10T05:21:31.142Z,98195.48
2023-03-10T05:26:34.956Z,98182.45
2023-03-10T05:31:38.252Z,98171.92
2023-03-10T05:36:42.082Z,98164.04
2023-03-10T05:41:44.904Z,98154.56
2023-03-10T05:46:47.795Z,98145.52
2023-03-10T05:51:51.238Z,98131.02
2023-03-10T05:56:54.244Z,98120.64
2023-03-10T06:01:57.245Z,98119.05
2023-03-10T06:07:01.239Z,98109.87
2023-03-10T06:12:04.831Z,98101.19
2023-03-10T06:17:07.695Z,98097.90
2023-03-10T06:22:10.597Z,98088.80
2023-03-10T06:27:13.502Z,98083.13
2023-03-10T06:32:16.856Z,98074.57
2023-03-10T06:37:19.828Z,98073.20
2023-03-10T06:42:22.730Z,98068.55
2023-03-10T06:47:25.681Z,98064.30
2023-03-10T06:52:28.644Z,98063.11
2023-03-10T06:57:31.555Z,98054.09
2023-03-10T07:02:34.453Z,98045.36
2023-03-10T07:07:37.459Z,98045.20
2023-03-10T07:12:40.356Z,98042.77
2023-03-10T07:17:43.260Z,98036.73
2023-03-10T07:22:46.164Z,98036.79
2023-03-10T07:27:49.783Z,98032.52
2023-03-10T07:32:54.503Z,98028.48
2023-03-10T07:37:57.462Z,98020.10
2023-03-10T07:43:00.444Z,98011.36
2023-03-10T07:48:03.410Z,98007.54
2023-03-10T07:53:06.455Z,97998.63
2023-03-10T07:58:09.367Z,97989.73
2023-03-10T08:03:12.572Z,97989.66
2023-03-10T08:08:15.686Z,97983.07
2023-03-10T08:13:18.717Z,97979.71
2023-03-10T08:18:23.548Z,97979.47
2023-03-10T08:23:26.445Z,97970.58
2023-03-10T08:28:30.781Z,97958.56
2023-03-10T08:33:34.093Z,97943.36
2023-03-10T08:38:37.610Z,97935.83
2023-03-10T08:43:40.831Z,97922.72
2023-03-10T08:48:43.942Z,97910.91
2023-03-10T08:53:49.305Z,97901.54
2023-03-10T08:58:57.430Z,97894.88
2023-03-10T09:04:01.654Z,97885.02
2023-03-10T09:09:06.510Z,97877.41
2023-03-10T09:14:12.075Z,97874.77
2023-03-10T09:19:15.076Z,97877.34
2023-03-10T09:24:19.523Z,97866.94
2023-03-10T09:29:40.312Z,97857.51
2023-03-10T09:34:45.801Z,97846.45
2023-03-10T09:39:48.711Z,97846.36
2023-03-10T09:45:10.970Z,97839.73
2023-03-10T09:50:34.056Z,97831.66
2023-03-10T09:55:47.469Z,97822.98
2023-03-10T10:00:51.645Z,97814.75
2023-03-10T10:05:56.077Z,97808.88
2023-03-10T10:11:00.556Z,97812.44
2023-03-10T10:16:34.711Z,97804.61
2023-03-10T10:22:12.059Z,97790.83
2023-03-10T10:27:18.728Z,97786.52
2023-03-10T10:32:23.168Z,97788.27
2023-03-10T10:37:34.008Z,97783.88
2023-03-10T10:42:38.728Z,97771.73
2023-03-10T10:47:50.539Z,97760.67
2023-03-10T10:53:16.792Z,97755.68
2023-03-10T10:58:28.600Z,97749.57
2023-03-10T11:03:37.646Z,97738.76
2023-03-10T11:08:43.120Z,97729.41
2023-03-10T11:14:26.575Z,97729.95
2023-03-10T11:19:35.417Z,97721.77
2023-03-10T11:24:43.244Z,97714.02
2023-03-10T11:29:59.404Z,97702.45
2023-03-10T11:35:15.773Z,97699.06
2023-03-10T11:40:49.919Z,97692.59
2023-03-10T11:45:55.467Z,97689.09
2023-03-10T11:51:04.363Z,97682.83
2023-03-10T11:56:11.224Z,97674.11
2023-03-10T12:01:42.495Z,97669.73
2023-03-10T12:06:53.690Z,97671.39
2023-03-10T12:11:57.634Z,97672.67
2023-03-10T12:17:02.876Z,97672.48
2023-03-10T12:22:21.441Z,97671.33
2023-03-10T12:27:24.552Z,97670.33
2023-03-10T12:32:47.847Z,97665.53
2023-03-10T12:38:29.546Z,97662.32
2023-03-10T12:43:38.916Z,97660.11
2023-03-10T12:48:50.455Z,97646.98
2023-03-10T12:54:16.566Z,97642.02
2023-03-10T12:59:37.086Z,97637.05
2023-03-10T13:04:42.557Z,97639.93
2023-03-10T13:09:49.095Z,97651.02
2023-03-10T13:14:56.340Z,97655.89
2023-03-10T13:20:05.813Z,97652.04
2023-03-10T13:25:14.491Z,97654.77
2023-03-10T13:30:21.536Z,97652.45
2023-03-10T13:35:31.689Z,97655.79
2023-03-10T13:40:35.271Z,97656.92
2023-03-10T13:45:38.284Z,97658.18
2023-03-10T13:50:41.242Z,97657.45
2023-03-10T13:55:44.354Z,97663.02
2023-03-10T14:00:50.720Z,97661.46
2023-03-10T14:05:54.257Z,97657.20
2023-03-10T14:11:32.589Z,97647.29
2023-03-10T14:16:59.431Z,97637.81
2023-03-10T14:22:02.557Z,97632.26
2023-03-10T14:27:10.378Z,97634.92
2023-03-10T14:32:13.868Z,97643.83
2023-03-10T14:37:17.624Z,97644.67
2023-03-10T14:42:29.125Z,97645.27
2023-03-10T14:47:32.322Z,97643.25
2023-03-10T14:52:35.454Z,97649.37
2023-03-10T14:57:40.295Z,97652.49
2023-03-10T15:02:43.196Z,97651.08
2023-03-10T15:07:47.545Z,97657.90
2023-03-10T15:12:53.563Z,97653.35
2023-03-10T15:17:56.526Z,97654.05
2023-03-10T15:22:59.437Z,97643.52
2023-03-10T15:28:02.819Z,97643.73
2023-03-10T15:33:05.749Z,97645.29
2023-03-10T15:38:10.394Z,97644.02
2023-03-10T15:43:14.099Z,97644.83
2023-03-10T15:48:17.948Z,97638.52
2023-03-10T15:53:20.846Z,97630.87
2023-03-10T15:58:24.606Z,97629.02
2023-03-10T16:03:27.586Z,97629.77
2023-03-10T16:08:37.199Z,97635.17
2023-03-10T16:13:40.401Z,97640.85
2023-03-10T16:18:43.350Z,97645.78
2023-03-10T16:23:46.680Z,97640.60
2023-03-10T16:28:54.397Z,97636.29
2023-03-10T16:33:57.388Z,97630.89
2023-03-10T16:39:00.439Z,97624.98
2023-03-10T16:44:05.660Z,97623.73
2023-03-10T16:49:14.899Z,97624.52
2023-03-10T16:54:22.316Z,97626.83
2023-03-10T16:59:25.417Z,97637.00
2023-03-10T17:04:28.428Z,97637.13
2023-03-10T17:09:31.333Z,97641.99
2023-03-10T17:14:34.262Z,97630.30
2023-03-10T17:19:37.145Z,97635.14
2023-03-10T17:24:40.054Z,97648.10
2023-03-10T17:29:42.948Z,97644.64
2023-03-10T17:34:52.105Z,97635.49
2023-03-10T17:39:55.704Z,97626.97
2023-03-10T17:44:58.733Z,97621.11
2023-03-10T17:50:02.560Z,97619.24
2023-03-10T17:55:06.560Z,97617.11
2023-03-10T18:00:11.058Z,97616.29
2023-03-10T18:05:14.341Z,97623.46
2023-03-10T18:10:17.493Z,97621.61
2023-03-10T18:15:20.575Z,97624.52
2023-03-10T18:20:24.282Z,97617.29
2023-03-10T18:25:27.637Z,97612.80
2023-03-10T18:30:30.509Z,97607.43
2023-03-10T18:35:34.016Z,97599.27
2023-03-10T18:40:36.923Z,97599.61
2023-03-10T18:45:40.953Z,97599.17
2023-03-10T18:50:43.853Z,97593.77
2023-03-10T18:55:47.067Z,97590.60
2023-03-10T19:00:50.498Z,97584.65
2023-03-10T19:05:54.785Z,97586.98
2023-03-10T19:10:59.257Z,97587.83
2023-03-10T19:16:09.772Z,97580.79
2023-03-10T19:21:13.257Z,97582.33
2023-03-10T19:26:16.472Z,97575.48
2023-03-10T19:31:19.821Z,97561.95
2023-03-10T19:36:26.714Z,97549.55
2023-03-10T19:41:29.558Z,97540.17
2023-03-10T19:46:32.933Z,97538.88
2023-03-10T19:51:36.005Z,97537.33
2023-03-10T19:56:39.510Z,97531.70
2023-03-10T20:01:44.179Z,97528.19
2023-03-10T20:06:47.287Z,97529.14
2023-03-10T20:11:50.182Z,97527.61
2023-03-10T20:16:53.377Z,97521.54
2023-03-10T20:21:56.297Z,97518.09
2023-03-10T20:27:00.326Z,97513.27
2023-03-10T20:32:04.515Z,97505.38
2023-03-10T20:37:07.777Z,97500.45
2023-03-10T20:42:10.682Z,97492.92
2023-03-10T20:47:13.583Z,97487.56
2023-03-10T20:52:16.588Z,97482.27
2023-03-10T20:57:19.489Z,97478.27
2023-03-10T21:02:22.495Z,97474.29
2023-03-10T21:07:25.398Z,97475.58
2023-03-10T21:12:28.919Z,97480.77
2023-03-10T21:17:32.023Z,97475.70
2023-03-10T21:22:36.107Z,97470.23
2023-03-10T21:27:38.969Z,97466.08
2023-03-10T21:32:42.353Z,97462.14
2023-03-10T21:37:49.592Z,97449.30
2023-03-10T21:42:52.977Z,97445.95
2023-03-10T21:47:56.330Z,97434.66
2023-03-10T21:53:00.296Z,97424.54
2023-03-10T21:58:05.748Z,97414.56
2023-03-10T22:03:08.718Z,97401.97
2023-03-10T22:08:11.541Z,97411.48
2023-03-10T22:13:14.733Z,97425.77
2023-03-10T22:18:17.638Z,97416.59
2023-03-10T22:23:21.050Z,97399.98
2023-03-10T22:28:23.951Z,97388.17
2023-03-10T22:33:26.957Z,97382.44
2023-03-10T22:38:29.964Z,97371.94
2023-03-10T22:43:32.969Z,97372.77
2023-03-10T22:48:35.802Z,97366.24
2023-03-10T22:53:38.893Z,97356.95
2023-03-10T22:58:41.985Z,97351.95
2023-03-10T23:03:44.894Z,97347.34
2023-03-10T23:08:48.715Z,97341.66
2023-03-10T23:13:52.038Z,97334.25
2023-03-10T23:18:55.045Z,97328.54
2023-03-10T23:23:58.046Z,97318.54
2023-03-10T23:29:02.919Z,97321.23
2023-03-10T23:34:05.899Z,97319.80
2023-03-10T23:39:11.571Z,97312.30
2023-03-10T23:44:14.485Z,97320.33
2023-03-10T23:49:17.581Z,97318.50
2023-03-10T23:54:22.538Z,97313.04
2023-03-10T23:59:25.652Z,97305.74
